Enterprise Municipal Information

FAA: EDN - ICAO: KEDN

Enterprise Municipal (Airport) Location

State Alabama
County Coffee
City Enterprise
Enterprise Municipal (Airport) is 3 miles west of Enterprise, AL.
Latitude 31-17-59.0000N
Longitude 085-53-59.4000W
Elevation 360ft

Enterprise Municipal METARs

METAR KEDN 300935Z AUTO 00000KT 10SM CLR 20/17 A3004 RMK AO1 T01960172
Altimeter 30.04"
Temperature 19.6°C (67.3°F)
Wind 0° at 0KT
Clouds Skies are clear.
Visibility 10.0mi
Time observed: 2023-09-30T09:35:00Z

Enterprise Municipal (Airport) Details

Status Operational
Activation July 1955
Ownership Public
Usage Public
Chart NEW ORLEANS
ATC on-site No
Beacon schedule sunset-sunrise
Beacon color clear green

Enterprise Municipal (Airport) Contacts

Owner TOWN OF ENTERPRISE
Owner address P.O.BOX 311000, ENTERPRISE, AL 36331
Owner phone 334-347-1211
Manager STACI HAYES
Manager address 867 AVIATION BLVD., ENTERPRISE, AL 36331
Manager phone 334-347-1211

Enterprise Municipal Radio Frequencies

Enterprise Municipal (Airport) Radio Frequencies

UNICOM 122.8
Common traffic advisory frequency (CTAF) 122.8